Time;durP1;ratioP1;P1;durP2;ratioP2;P2;SDS_P1;SDS_P2;PMS_P1;PMS_P2;Temp;Humidity;BMP_temperature;BMP_pressure;BME280_temperature;BME280_humidity;BME280_pressure;Samples;Min_cycle;Max_cycle;Signal;HPM_P1;HPM_P2
2021/04/20 00:02:19;;;;;;;13.10;9.90;;;6.30;99.90;;;;;;5080129;28;20207;-60
2021/04/20 00:04:46;;;;;;;9.20;8.23;;;6.40;99.90;;;;;;5072299;28;20556;-60
2021/04/20 00:07:13;;;;;;;12.80;9.02;;;6.50;99.90;;;;;;5073177;28;20237;-60
2021/04/20 00:09:40;;;;;;;10.93;7.15;;;6.60;99.90;;;;;;5080296;28;20263;-59
2021/04/20 00:12:07;;;;;;;14.50;9.15;;;6.40;99.90;;;;;;5079219;28;20206;-60
2021/04/20 00:14:33;;;;;;;11.43;8.13;;;6.50;99.90;;;;;;5087563;28;20420;-59
2021/04/20 00:17:00;;;;;;;12.18;8.55;;;6.50;99.90;;;;;;5077203;28;20207;-60
2021/04/20 00:19:26;;;;;;;12.52;8.65;;;6.40;99.90;;;;;;5091352;28;20261;-60
2021/04/20 00:21:53;;;;;;;8.15;7.38;;;6.40;99.90;;;;;;5077988;28;20206;-60
2021/04/20 00:24:20;;;;;;;8.52;7.35;;;6.40;99.90;;;;;;5078125;28;20494;-60
2021/04/20 00:26:46;;;;;;;11.77;9.15;;;6.40;99.90;;;;;;5080596;28;20239;-60
2021/04/20 00:29:13;;;;;;;10.65;7.68;;;6.40;99.90;;;;;;5080538;28;20229;-60
2021/04/20 00:31:39;;;;;;;11.48;9.52;;;6.40;99.90;;;;;;5080991;28;20229;-60
2021/04/20 00:34:06;;;;;;;9.30;7.85;;;6.40;99.90;;;;;;5080064;28;20206;-60
2021/04/20 00:36:33;;;;;;;10.07;7.15;;;6.40;99.90;;;;;;5080611;28;20217;-60
2021/04/20 00:38:59;;;;;;;18.25;9.60;;;6.30;99.90;;;;;;5075091;28;20206;-60
2021/04/20 00:41:26;;;;;;;10.00;5.72;;;6.40;99.90;;;;;;5067141;28;20385;-60
2021/04/20 00:43:52;;;;;;;11.15;8.52;;;6.30;99.90;;;;;;5069405;28;20211;-61
2021/04/20 00:46:21;;;;;;;9.18;6.80;;;6.20;99.90;;;;;;5079586;28;20222;-59
2021/04/20 00:48:48;;;;;;;10.60;6.60;;;6.30;99.90;;;;;;5075310;28;20210;-59
2021/04/20 00:51:15;;;;;;;8.52;6.93;;;6.30;99.90;;;;;;5079631;28;20250;-60
2021/04/20 00:53:42;;;;;;;6.50;4.28;;;6.30;99.90;;;;;;5068090;28;20198;-59
2021/04/20 00:56:09;;;;;;;13.25;8.10;;;6.20;99.90;;;;;;5079476;28;20203;-60
2021/04/20 00:58:36;;;;;;;7.55;5.65;;;6.30;99.90;;;;;;5067519;28;20455;-59
2021/04/20 01:01:05;;;;;;;9.30;7.68;;;6.30;99.90;;;;;;5074045;28;20249;-61
2021/04/20 01:03:32;;;;;;;8.85;7.80;;;6.20;99.90;;;;;;5068182;28;20207;-60
2021/04/20 01:06:00;;;;;;;13.52;7.50;;;6.30;99.90;;;;;;5074332;28;20614;-59
2021/04/20 01:08:27;;;;;;;8.60;7.78;;;6.30;99.90;;;;;;5071117;28;20195;-60
2021/04/20 01:10:56;;;;;;;13.57;6.50;;;6.30;99.90;;;;;;5070225;28;20496;-60
2021/04/20 01:13:29;;;;;;;9.82;6.93;;;6.30;99.90;;;;;;5071758;28;20230;-60
2021/04/20 01:15:56;;;;;;;9.70;6.43;;;6.20;99.90;;;;;;5073462;28;20225;-60
2021/04/20 01:18:28;;;;;;;8.50;6.38;;;6.20;99.90;;;;;;5067178;28;20266;-59
2021/04/20 01:21:00;;;;;;;8.55;7.18;;;6.20;99.90;;;;;;5075374;28;20210;-60
2021/04/20 01:23:44;;;;;;;7.78;6.97;;;6.10;99.90;;;;;;5091026;28;20202;-60
2021/04/20 01:26:11;;;;;;;8.52;5.10;;;6.10;99.90;;;;;;5079185;28;20492;-61
2021/04/20 01:28:38;;;;;;;11.52;8.27;;;6.10;99.90;;;;;;5079413;28;20262;-61
2021/04/20 01:31:05;;;;;;;15.57;6.80;;;6.10;99.90;;;;;;5079588;28;20194;-61
2021/04/20 01:33:32;;;;;;;9.02;6.07;;;6.10;99.90;;;;;;5079393;28;20206;-60
2021/04/20 01:35:59;;;;;;;10.75;9.50;;;6.10;99.90;;;;;;5078987;28;20497;-59
2021/04/20 01:38:29;;;;;;;12.65;6.03;;;6.00;99.90;;;;;;5078864;28;20425;-59
2021/04/20 01:40:57;;;;;;;9.20;6.97;;;6.00;99.90;;;;;;5060140;28;20234;-60
2021/04/20 01:43:24;;;;;;;9.68;6.25;;;6.00;99.90;;;;;;5071940;28;20440;-60
2021/04/20 01:45:50;;;;;;;9.25;6.10;;;6.00;99.90;;;;;;5078014;28;20210;-64
2021/04/20 01:48:17;;;;;;;7.05;5.75;;;6.00;99.90;;;;;;5064933;28;20230;-60
2021/04/20 01:50:43;;;;;;;9.13;7.25;;;6.00;99.90;;;;;;5067258;28;20282;-60
2021/04/20 01:53:10;;;;;;;9.75;6.80;;;6.10;99.90;;;;;;5070976;28;20239;-60
2021/04/20 01:55:37;;;;;;;17.48;6.75;;;6.10;99.90;;;;;;5079177;28;20385;-60
2021/04/20 01:58:05;;;;;;;6.72;6.05;;;6.00;99.90;;;;;;5078072;28;20238;-60
2021/04/20 02:00:33;;;;;;;6.88;6.32;;;6.00;99.90;;;;;;5079248;28;20649;-60
2021/04/20 02:03:00;;;;;;;11.70;7.63;;;5.90;99.90;;;;;;5077700;28;20515;-60
2021/04/20 02:05:27;;;;;;;9.93;6.57;;;5.90;99.90;;;;;;5068095;28;20211;-59
2021/04/20 02:07:53;;;;;;;8.00;6.25;;;5.80;99.90;;;;;;5058882;28;20246;-61
2021/04/20 02:10:21;;;;;;;11.07;7.28;;;5.80;99.90;;;;;;5058814;28;20252;-60
2021/04/20 02:12:47;;;;;;;9.15;6.22;;;5.80;99.90;;;;;;5072564;28;20199;-59
2021/04/20 02:15:17;;;;;;;6.53;5.68;;;5.80;99.90;;;;;;5058720;28;20222;-60
2021/04/20 02:17:44;;;;;;;9.98;8.93;;;5.50;99.90;;;;;;5078070;28;20382;-59
2021/04/20 02:20:13;;;;;;;10.18;7.22;;;5.60;99.90;;;;;;5078416;28;20277;-60
2021/04/20 02:22:45;;;;;;;7.53;6.28;;;5.80;99.90;;;;;;5074552;28;20214;-60
2021/04/20 02:25:14;;;;;;;7.85;7.15;;;5.80;99.90;;;;;;5058694;28;20237;-60
2021/04/20 02:27:42;;;;;;;7.07;5.80;;;5.80;99.90;;;;;;5072568;28;20235;-61
2021/04/20 02:30:11;;;;;;;13.57;5.70;;;5.80;99.90;;;;;;5076837;28;20233;-61
2021/04/20 02:32:38;;;;;;;6.82;5.80;;;5.80;99.90;;;;;;5078157;28;20199;-60
2021/04/20 02:35:09;;;;;;;9.73;6.18;;;5.60;99.90;;;;;;5078519;28;20276;-60
2021/04/20 02:37:37;;;;;;;12.05;8.55;;;5.60;99.90;;;;;;5079991;28;20209;-60
2021/04/20 02:40:19;;;;;;;10.02;5.78;;;5.70;99.90;;;;;;5071466;28;20275;-60
2021/04/20 02:42:48;;;;;;;9.63;5.60;;;5.60;99.90;;;;;;5073046;28;20206;-60
2021/04/20 02:45:15;;;;;;;6.82;5.78;;;5.60;99.90;;;;;;5085040;28;20257;-60
2021/04/20 02:47:43;;;;;;;7.78;7.00;;;5.70;99.90;;;;;;5087387;28;20627;-60
2021/04/20 02:50:13;;;;;;;9.60;6.47;;;5.60;99.90;;;;;;5081762;28;20248;-60
2021/04/20 02:52:40;;;;;;;8.48;7.28;;;5.60;99.90;;;;;;5082590;28;20211;-60
2021/04/20 02:55:10;;;;;;;10.10;6.75;;;5.60;99.90;;;;;;5082173;28;20276;-60
2021/04/20 02:57:39;;;;;;;15.57;8.40;;;5.60;99.90;;;;;;5094027;28;20212;-60
2021/04/20 03:00:08;;;;;;;8.80;6.72;;;5.60;99.90;;;;;;5087359;28;20205;-60
2021/04/20 03:02:37;;;;;;;5.35;4.88;;;5.60;99.90;;;;;;5092660;28;20202;-61
2021/04/20 03:05:26;;;;;;;10.50;8.43;;;5.50;99.90;;;;;;5095704;28;20210;-60
2021/04/20 03:07:52;;;;;;;9.48;7.20;;;5.30;99.90;;;;;;5082033;28;20238;-60
2021/04/20 03:10:20;;;;;;;10.50;6.82;;;5.20;99.90;;;;;;5095750;28;20201;-59
2021/04/20 03:12:47;;;;;;;7.18;6.30;;;5.30;99.90;;;;;;5082563;28;20256;-59
2021/04/20 03:15:16;;;;;;;7.45;5.03;;;5.30;99.90;;;;;;5067156;28;20422;-61
2021/04/20 03:17:45;;;;;;;4.75;4.25;;;5.20;99.90;;;;;;5071135;28;20218;-60
2021/04/20 03:20:13;;;;;;;5.82;5.32;;;5.00;99.90;;;;;;5068284;28;20210;-60
2021/04/20 03:22:41;;;;;;;10.93;5.80;;;5.00;99.90;;;;;;5080507;28;20207;-60
2021/04/20 03:25:11;;;;;;;9.90;5.15;;;5.10;99.90;;;;;;5077418;28;20199;-61
2021/04/20 03:27:48;;;;;;;8.32;4.70;;;5.10;99.90;;;;;;5076870;28;20234;-59
2021/04/20 03:30:17;;;;;;;6.00;5.05;;;5.30;99.90;;;;;;5081472;28;20227;-60
2021/04/20 03:32:57;;;;;;;10.02;5.28;;;5.50;99.90;;;;;;5082331;28;20203;-59
2021/04/20 03:35:29;;;;;;;5.40;4.25;;;5.60;99.90;;;;;;5081389;28;20226;-60
2021/04/20 03:38:05;;;;;;;6.13;5.05;;;5.60;99.90;;;;;;5081657;28;20293;-60
2021/04/20 03:40:33;;;;;;;5.63;3.45;;;5.60;99.90;;;;;;5080946;28;20222;-60
2021/04/20 03:43:08;;;;;;;10.45;6.18;;;5.70;99.90;;;;;;5073845;28;20202;-60
2021/04/20 03:45:46;;;;;;;7.13;4.28;;;5.60;99.90;;;;;;5073053;28;20508;-60
2021/04/20 03:48:41;;;;;;;9.40;5.43;;;5.60;99.90;;;;;;5074048;28;20230;-61
2021/04/20 03:51:13;;;;;;;6.80;5.53;;;5.50;99.90;;;;;;5068469;28;20621;-60
2021/04/20 03:53:47;;;;;;;9.75;6.57;;;5.60;99.90;;;;;;5083900;28;20205;-59
2021/04/20 03:56:17;;;;;;;9.73;6.13;;;5.70;99.90;;;;;;5080873;28;20435;-59
2021/04/20 03:58:45;;;;;;;5.40;5.00;;;5.80;99.90;;;;;;5071797;28;20209;-59
2021/04/20 04:01:15;;;;;;;6.85;6.22;;;5.80;99.90;;;;;;5078927;28;20413;-60
2021/04/20 04:03:47;;;;;;;4.53;3.95;;;5.80;99.90;;;;;;5070335;28;20246;-60
2021/04/20 04:06:18;;;;;;;6.63;4.38;;;5.80;99.90;;;;;;5080629;28;20207;-59
2021/04/20 04:08:45;;;;;;;7.53;4.68;;;5.80;99.90;;;;;;5080619;28;20233;-59
2021/04/20 04:11:12;;;;;;;4.82;4.38;;;5.90;99.90;;;;;;5066452;28;20211;-62
2021/04/20 04:13:42;;;;;;;9.32;5.53;;;5.90;99.90;;;;;;5078982;28;20483;-60
2021/04/20 04:16:12;;;;;;;5.03;4.53;;;6.10;99.90;;;;;;5069604;28;20268;-59
2021/04/20 04:18:44;;;;;;;4.13;3.83;;;6.20;99.90;;;;;;5079294;28;20262;-60
2021/04/20 04:21:13;;;;;;;8.85;5.03;;;6.10;99.90;;;;;;5080388;28;20215;-60
2021/04/20 04:23:47;;;;;;;4.47;3.67;;;6.10;99.90;;;;;;5066108;28;20223;-60
2021/04/20 04:26:25;;;;;;;4.85;3.05;;;6.20;99.90;;;;;;5080502;28;20195;-60
2021/04/20 04:28:58;;;;;;;7.85;4.38;;;6.20;99.90;;;;;;5080234;28;20248;-61
2021/04/20 04:31:27;;;;;;;4.38;4.07;;;6.30;99.90;;;;;;5080288;28;20421;-59
2021/04/20 04:33:56;;;;;;;5.53;3.47;;;6.40;99.90;;;;;;5074731;28;20389;-60
2021/04/20 04:36:23;;;;;;;4.72;3.55;;;6.40;99.90;;;;;;5079929;28;20210;-61
2021/04/20 04:38:50;;;;;;;6.07;3.15;;;6.60;99.90;;;;;;5080191;28;20206;-60
2021/04/20 04:41:17;;;;;;;7.55;5.53;;;6.60;99.90;;;;;;5073666;28;20234;-60
2021/04/20 04:43:44;;;;;;;5.30;4.28;;;6.60;99.90;;;;;;5075311;28;20202;-60
2021/04/20 04:46:11;;;;;;;7.13;5.03;;;6.60;99.90;;;;;;5068023;28;20207;-61
2021/04/20 04:48:38;;;;;;;5.78;5.03;;;6.50;99.90;;;;;;5073736;28;20229;-61
2021/04/20 04:51:07;;;;;;;4.18;3.78;;;6.60;99.90;;;;;;5079167;28;20277;-59
2021/04/20 04:53:34;;;;;;;4.50;4.10;;;6.60;99.90;;;;;;5087174;28;20225;-60
2021/04/20 04:56:03;;;;;;;7.68;6.22;;;6.60;99.90;;;;;;5089566;28;20203;-60
2021/04/20 04:58:31;;;;;;;9.18;6.07;;;6.60;99.90;;;;;;5079330;28;20579;-61
2021/04/20 05:01:02;;;;;;;4.88;4.45;;;6.80;99.90;;;;;;5079406;28;20203;-60
2021/04/20 05:03:28;;;;;;;7.28;5.82;;;6.70;99.90;;;;;;5073299;28;20514;-59
2021/04/20 05:05:56;;;;;;;10.77;6.85;;;7.00;99.90;;;;;;5079715;28;20206;-60
2021/04/20 05:08:23;;;;;;;6.97;4.95;;;7.00;99.90;;;;;;5067712;28;20239;-60
2021/04/20 05:10:50;;;;;;;6.35;5.80;;;7.20;99.90;;;;;;5061944;28;20457;-61
2021/04/20 05:13:18;;;;;;;13.60;7.22;;;7.30;99.90;;;;;;5078454;28;20379;-61
2021/04/20 05:15:44;;;;;;;8.48;6.47;;;7.50;99.90;;;;;;5065218;28;20413;-60
2021/04/20 05:18:12;;;;;;;7.90;6.93;;;7.60;99.90;;;;;;5078549;28;20207;-59
2021/04/20 05:20:44;;;;;;;13.95;6.70;;;7.90;99.90;;;;;;5078824;28;20199;-63
2021/04/20 05:23:15;;;;;;;8.43;6.18;;;8.10;99.90;;;;;;5069809;28;20203;-60
2021/04/20 05:25:42;;;;;;;10.00;7.45;;;8.00;99.90;;;;;;5065424;28;20203;-60
2021/04/20 05:28:09;;;;;;;8.73;6.03;;;8.00;99.90;;;;;;5074123;28;20291;-59
2021/04/20 05:30:36;;;;;;;8.30;6.63;;;8.20;99.90;;;;;;5078826;28;20234;-60
2021/04/20 05:33:04;;;;;;;6.72;5.07;;;8.30;99.90;;;;;;5078516;28;20233;-60
2021/04/20 05:35:31;;;;;;;5.95;4.43;;;8.50;99.90;;;;;;5078495;28;20222;-61
2021/04/20 05:37:57;;;;;;;12.20;8.25;;;8.30;99.90;;;;;;5079425;28;20211;-60
2021/04/20 05:40:26;;;;;;;9.02;8.13;;;8.50;99.90;;;;;;5084930;28;20202;-60
2021/04/20 05:42:54;;;;;;;9.95;7.07;;;8.60;99.90;;;;;;5078778;28;20198;-61
2021/04/20 05:45:21;;;;;;;9.68;8.68;;;8.60;99.90;;;;;;5079001;28;20546;-61
2021/04/20 05:47:50;;;;;;;8.48;6.55;;;8.70;99.90;;;;;;5078717;28;20428;-60
2021/04/20 05:50:25;;;;;;;10.43;6.93;;;8.80;99.90;;;;;;5078002;28;20516;-60
2021/04/20 05:52:51;;;;;;;9.57;6.47;;;8.80;99.90;;;;;;5078615;28;20203;-61
2021/04/20 05:55:18;;;;;;;15.30;9.43;;;8.70;99.90;;;;;;5078185;28;20203;-59
2021/04/20 05:57:47;;;;;;;9.90;7.57;;;8.80;99.90;;;;;;5075971;28;20207;-60
2021/04/20 06:00:15;;;;;;;15.40;8.18;;;8.80;99.90;;;;;;5079026;28;20567;-60
2021/04/20 06:02:42;;;;;;;11.48;7.35;;;8.70;99.90;;;;;;5068581;28;20398;-60
2021/04/20 06:05:14;;;;;;;16.00;9.32;;;8.80;99.90;;;;;;5054734;28;20226;-60
2021/04/20 06:07:53;;;;;;;12.93;8.70;;;8.80;99.90;;;;;;5025424;28;20552;-61
2021/04/20 06:10:19;;;;;;;9.80;7.10;;;9.00;99.90;;;;;;5059101;28;20200;-61
2021/04/20 06:12:47;;;;;;;13.30;8.50;;;9.20;99.90;;;;;;5073566;28;20522;-61
2021/04/20 06:15:15;;;;;;;11.23;8.50;;;9.20;99.90;;;;;;5063844;28;20510;-61
2021/04/20 06:17:44;;;;;;;11.50;7.13;;;9.40;99.90;;;;;;5070154;28;20211;-62
2021/04/20 06:20:14;;;;;;;11.63;8.35;;;9.60;99.90;;;;;;5072073;28;20215;-61
2021/04/20 06:22:42;;;;;;;8.77;6.60;;;9.70;99.90;;;;;;5080176;28;20215;-61
2021/04/20 06:25:11;;;;;;;11.30;9.60;;;9.90;99.90;;;;;;5085336;28;20515;-60
2021/04/20 06:27:44;;;;;;;13.65;8.10;;;10.40;99.90;;;;;;5082278;28;20240;-60
2021/04/20 06:30:23;;;;;;;9.52;7.28;;;10.80;99.90;;;;;;5090656;28;20209;-60
2021/04/20 06:33:03;;;;;;;10.50;8.18;;;11.60;99.90;;;;;;5090546;28;20399;-59
2021/04/20 06:35:35;;;;;;;10.70;7.85;;;12.20;99.90;;;;;;5082398;28;20205;-63
2021/04/20 06:38:02;;;;;;;8.93;7.43;;;13.00;99.90;;;;;;5079922;28;20547;-60
2021/04/20 06:40:41;;;;;;;10.38;7.70;;;14.30;99.90;;;;;;5070836;28;20194;-61
2021/04/20 06:43:11;;;;;;;7.38;6.68;;;15.70;97.90;;;;;;5081927;28;20270;-61
2021/04/20 06:45:55;;;;;;;11.82;9.10;;;17.00;94.10;;;;;;5084879;28;20569;-62
2021/04/20 06:48:25;;;;;;;6.93;6.20;;;18.50;91.40;;;;;;5081769;28;20226;-60
2021/04/20 06:50:55;;;;;;;7.90;7.13;;;19.20;86.10;;;;;;5082117;28;20463;-61
2021/04/20 06:53:37;;;;;;;6.97;6.37;;;20.00;84.30;;;;;;5079892;28;20446;-62
2021/04/20 06:56:37;;;;;;;8.30;7.60;;;20.70;80.60;;;;;;5075985;28;20439;-61
2021/04/20 06:59:34;;;;;;;9.77;8.87;;;22.10;77.30;;;;;;5067953;28;20725;-62
2021/04/20 07:02:20;;;;;;;8.80;8.10;;;23.00;65.70;;;;;;5082157;28;20705;-61
2021/04/20 07:04:59;;;;;;;8.97;8.17;;;23.30;67.10;;;;;;5082092;28;20709;-62
2021/04/20 07:07:32;;;;;;;8.70;8.00;;;21.60;68.20;;;;;;5071714;28;20499;-61
2021/04/20 07:10:18;;;;;;;9.30;8.43;;;21.50;77.40;;;;;;5076608;28;20413;-60
2021/04/20 07:12:53;;;;;;;10.27;9.37;;;22.10;70.60;;;;;;5075431;28;20475;-61
2021/04/20 07:15:21;;;;;;;10.00;9.20;;;23.50;68.40;;;;;;5066942;28;20453;-60
2021/04/20 07:17:59;;;;;;;10.80;9.90;;;24.20;59.10;;;;;;5081855;28;20660;-62
2021/04/20 07:21:05;;;;;;;10.30;9.43;;;23.70;62.30;;;;;;5081751;28;20431;-61
2021/04/20 07:23:47;;;;;;;11.73;10.73;;;24.20;63.50;;;;;;5075446;28;20414;-61
2021/04/20 07:26:26;;;;;;;10.97;10.17;;;25.80;53.40;;;;;;5081300;28;20399;-61
2021/04/20 07:29:31;;;;;;;10.57;9.87;;;25.30;54.80;;;;;;5074044;28;20821;-62
2021/04/20 07:32:16;;;;;;;11.37;10.47;;;24.70;58.40;;;;;;5077244;28;20418;-60
2021/04/20 07:34:58;;;;;;;12.40;11.50;;;24.00;59.60;;;;;;5081907;28;20439;-61
2021/04/20 07:37:41;;;;;;;10.37;9.47;;;23.60;59.00;;;;;;5080441;28;20421;-61
2021/04/20 07:40:30;;;;;;;11.90;11.00;;;24.30;59.10;;;;;;5081092;28;20411;-60
2021/04/20 07:43:27;;;;;;;12.30;11.23;;;24.80;55.90;;;;;;5067274;28;20518;-61
2021/04/20 07:46:11;;;;;;;12.40;11.40;;;23.20;61.50;;;;;;5081523;28;20462;-61
2021/04/20 07:48:41;;;;;;;9.93;9.23;;;23.80;61.10;;;;;;5093984;28;20457;-63
2021/04/20 07:51:27;;;;;;;10.77;9.97;;;24.00;58.10;;;;;;5079270;28;20814;-61
2021/04/20 07:54:06;;;;;;;11.13;10.30;;;23.90;62.20;;;;;;5074996;28;20435;-61
2021/04/20 07:56:45;;;;;;;9.40;8.73;;;24.00;56.80;;;;;;5071355;28;20515;-61
2021/04/20 07:59:38;;;;;;;12.33;11.30;;;24.30;61.20;;;;;;5068627;28;20411;-61
2021/04/20 08:02:36;;;;;;;10.53;9.73;;;25.50;53.70;;;;;;5078943;28;20432;-63
2021/04/20 08:05:24;;;;;;;10.70;10.00;;;26.30;54.40;;;;;;5079767;28;20436;-61
2021/04/20 08:07:55;;;;;;;10.47;9.70;;;28.20;48.40;;;;;;5079132;28;20450;-61
2021/04/20 08:10:32;;;;;;;11.60;10.83;;;28.90;45.80;;;;;;5080801;28;20443;-61
2021/04/20 08:13:33;;;;;;;10.73;10.03;;;29.60;44.80;;;;;;5067005;28;20444;-61
2021/04/20 08:16:20;;;;;;;11.03;10.03;;;28.70;44.20;;;;;;5071495;28;20456;-62
2021/04/20 08:18:53;;;;;;;11.00;10.30;;;29.60;43.80;;;;;;5078280;28;20477;-61
2021/04/20 08:21:21;;;;;;;13.13;12.27;;;29.40;42.00;;;;;;5078811;28;20446;-62
2021/04/20 08:23:51;;;;;;;11.50;10.70;;;29.80;43.80;;;;;;5074614;28;20473;-61
2021/04/20 08:26:23;;;;;;;12.63;11.63;;;29.30;42.30;;;;;;5079745;28;20440;-62
2021/04/20 08:28:58;;;;;;;13.23;12.37;;;28.60;44.30;;;;;;5078924;28;20484;-62
2021/04/20 08:31:39;;;;;;;12.73;11.93;;;30.10;41.70;;;;;;5091897;28;20450;-62
2021/04/20 08:34:33;;;;;;;12.83;12.13;;;30.70;39.10;;;;;;5079343;28;20742;-62
2021/04/20 08:38:02;;;;;;;11.80;11.20;;;30.40;39.50;;;;;;5079476;28;20452;-62
2021/04/20 08:40:49;;;;;;;12.47;11.77;;;30.50;40.00;;;;;;5050296;28;20474;-62
2021/04/20 08:43:39;;;;;;;13.23;12.40;;;30.70;38.40;;;;;;5069086;28;20434;-62
2021/04/20 08:46:13;;;;;;;12.37;11.57;;;31.10;39.40;;;;;;5080482;28;20489;-63
2021/04/20 08:49:13;;;;;;;11.67;11.00;;;31.40;37.90;;;;;;5079350;28;20490;-63
2021/04/20 08:51:54;;;;;;;11.97;11.20;;;31.90;36.60;;;;;;5079731;28;20785;-62
2021/04/20 08:55:19;;;;;;;13.23;12.43;;;30.80;38.10;;;;;;5079131;28;20477;-62
2021/04/20 08:57:52;;;;;;;13.97;12.83;;;31.40;36.30;;;;;;5057888;28;20501;-63
2021/04/20 09:00:45;;;;;;;13.20;12.40;;;30.30;38.40;;;;;;5044774;28;20444;-63
2021/04/20 09:03:26;;;;;;;11.83;11.10;;;29.20;35.90;;;;;;5060802;28;20730;-63
2021/04/20 09:05:59;;;;;;;11.60;10.90;;;28.20;40.90;;;;;;5079820;28;20483;-63
2021/04/20 09:08:37;;;;;;;11.50;10.80;;;28.60;40.00;;;;;;5080985;28;20454;-64
2021/04/20 09:11:26;;;;;;;12.40;11.63;;;28.00;39.60;;;;;;5067387;28;20663;-62
2021/04/20 09:14:06;;;;;;;12.27;11.60;;;27.40;41.20;;;;;;5081969;28;20443;-62
2021/04/20 09:16:47;;;;;;;11.70;11.00;;;28.40;39.60;;;;;;5080770;28;20432;-63
2021/04/20 09:19:39;;;;;;;11.20;10.60;;;28.20;40.90;;;;;;5079269;28;20546;-63
2021/04/20 09:22:59;;;;;;;11.47;10.67;;;28.90;41.40;;;;;;5078907;28;20774;-63
2021/04/20 09:25:47;;;;;;;11.00;10.23;;;28.60;40.30;;;;;;5056794;28;20443;-63
2021/04/20 09:28:30;;;;;;;11.13;10.43;;;25.60;44.10;;;;;;5077529;28;20679;-63
2021/04/20 09:31:06;;;;;;;11.07;10.27;;;23.50;49.80;;;;;;5081627;28;20406;-62
2021/04/20 09:33:42;;;;;;;9.97;9.37;;;22.20;53.90;;;;;;5079176;28;20542;-63
2021/04/20 09:36:11;;;;;;;10.60;9.80;;;21.90;55.40;;;;;;5078079;28;20799;-63
2021/04/20 09:38:45;;;;;;;12.27;11.40;;;21.50;58.50;;;;;;5077242;28;20426;-62
2021/04/20 09:41:14;;;;;;;11.40;10.50;;;21.40;59.10;;;;;;5089175;28;20429;-65
2021/04/20 09:44:02;;;;;;;10.10;9.50;;;21.30;64.00;;;;;;5079006;28;20420;-63
2021/04/20 09:46:47;;;;;;;10.07;9.17;;;21.00;64.80;;;;;;5077361;28;20411;-63
2021/04/20 09:49:39;;;;;;;10.40;9.50;;;20.10;66.10;;;;;;5078175;28;20475;-62
2021/04/20 09:52:16;;;;;;;9.30;8.50;;;19.50;69.60;;;;;;5062597;28;20433;-63
2021/04/20 09:55:06;;;;;;;9.10;8.50;;;19.50;72.80;;;;;;5073370;28;20450;-64
2021/04/20 09:57:36;;;;;;;9.37;8.67;;;19.50;72.60;;;;;;5088624;28;20444;-64
2021/04/20 10:00:09;;;;;;;10.93;8.57;;;19.50;74.70;;;;;;5078631;28;20486;-63
2021/04/20 10:03:05;;;;;;;9.40;8.60;;;19.40;76.20;;;;;;5079427;28;20440;-64
2021/04/20 10:05:57;;;;;;;8.63;7.93;;;19.20;75.50;;;;;;5078593;28;20706;-63
2021/04/20 10:08:45;;;;;;;8.43;7.93;;;19.40;74.90;;;;;;5066281;28;20530;-63
2021/04/20 10:11:33;;;;;;;8.00;7.50;;;19.10;72.40;;;;;;5069554;28;20673;-63
2021/04/20 10:14:21;;;;;;;7.73;7.23;;;18.40;78.00;;;;;;5072564;28;20634;-63
2021/04/20 10:17:14;;;;;;;8.47;7.87;;;18.10;83.30;;;;;;5083990;28;20438;-64
2021/04/20 10:19:44;;;;;;;8.00;7.40;;;18.10;81.50;;;;;;5078463;28;20429;-63
2021/04/20 10:22:40;;;;;;;7.90;7.47;;;18.10;79.60;;;;;;5078300;28;20417;-63
2021/04/20 10:25:37;;;;;;;9.07;8.37;;;17.90;79.20;;;;;;5085888;28;20608;-64
2021/04/20 10:28:21;;;;;;;8.80;8.10;;;17.70;75.20;;;;;;5076648;28;20449;-63
2021/04/20 10:30:52;;;;;;;8.20;7.60;;;17.50;76.70;;;;;;5076611;28;20453;-64
2021/04/20 10:33:23;;;;;;;7.03;6.63;;;17.60;79.50;;;;;;5075152;28;20732;-63
2021/04/20 10:35:56;;;;;;;8.47;7.87;;;17.90;79.10;;;;;;5078045;28;20491;-64
2021/04/20 10:38:30;;;;;;;8.47;7.77;;;18.00;75.10;;;;;;5077328;28;20432;-63
2021/04/20 10:40:57;;;;;;;7.80;7.40;;;18.10;75.90;;;;;;5078175;28;20489;-65
2021/04/20 10:43:28;;;;;;;7.33;6.93;;;18.30;75.80;;;;;;5087539;28;20447;-64
2021/04/20 10:45:59;;;;;;;7.47;6.97;;;18.30;70.00;;;;;;5087266;28;20417;-63
2021/04/20 10:48:27;;;;;;;6.93;6.57;;;18.20;70.30;;;;;;5078164;28;20856;-63
2021/04/20 10:50:56;;;;;;;6.73;6.33;;;17.90;66.30;;;;;;5073219;28;20472;-64
2021/04/20 10:53:31;;;;;;;7.13;6.73;;;17.70;64.00;;;;;;5082094;28;20436;-63
2021/04/20 10:56:11;;;;;;;7.37;6.90;;;17.80;67.10;;;;;;5067611;28;20730;-64
2021/04/20 10:58:43;;;;;;;7.80;7.27;;;17.80;63.80;;;;;;5069520;28;20637;-63
2021/04/20 11:01:21;;;;;;;6.93;6.60;;;17.80;65.80;;;;;;5078210;28;20443;-64
2021/04/20 11:03:50;;;;;;;7.17;6.77;;;18.10;66.20;;;;;;5069904;28;20471;-64
2021/04/20 11:06:54;;;;;;;6.93;6.53;;;18.70;58.60;;;;;;5077418;28;20471;-63
2021/04/20 11:09:29;;;;;;;7.00;6.50;;;19.20;57.00;;;;;;5072972;28;20466;-63
2021/04/20 11:11:56;;;;;;;6.90;6.47;;;19.90;54.80;;;;;;5078558;28;20605;-63
2021/04/20 11:14:40;;;;;;;7.03;6.73;;;20.40;48.40;;;;;;5081658;28;20418;-63
2021/04/20 11:17:31;;;;;;;7.30;6.70;;;21.20;49.30;;;;;;5083559;28;20418;-63
2021/04/20 11:20:12;;;;;;;7.67;7.20;;;21.80;47.70;;;;;;5088408;28;20441;-64
2021/04/20 11:22:50;;;;;;;6.77;6.40;;;22.00;46.90;;;;;;5067948;28;20460;-63
2021/04/20 11:25:35;;;;;;;7.40;7.00;;;21.90;45.10;;;;;;5095756;28;20414;-63
2021/04/20 11:28:12;;;;;;;7.00;6.67;;;21.30;43.30;;;;;;5069445;28;20547;-63
2021/04/20 11:30:49;;;;;;;6.90;6.60;;;21.40;44.50;;;;;;5081117;28;20501;-63
2021/04/20 11:33:19;;;;;;;7.73;7.23;;;21.60;44.90;;;;;;5081197;28;20482;-63
2021/04/20 11:35:49;;;;;;;7.60;7.20;;;21.80;42.80;;;;;;5066904;28;20412;-62
2021/04/20 11:38:18;;;;;;;7.20;6.90;;;22.00;43.40;;;;;;5080900;28;20641;-62
2021/04/20 11:41:02;;;;;;;7.33;7.03;;;21.60;44.40;;;;;;5080291;28;20493;-63
2021/04/20 11:43:30;;;;;;;6.70;6.40;;;20.70;48.20;;;;;;5081559;28;20600;-63
2021/04/20 11:46:03;;;;;;;7.37;6.90;;;20.50;48.20;;;;;;5082841;28;20459;-63
2021/04/20 11:48:35;;;;;;;7.60;7.20;;;20.70;55.00;;;;;;5099455;28;20495;-62
2021/04/20 11:51:07;;;;;;;7.87;7.40;;;20.70;62.30;;;;;;5068392;28;20891;-63
2021/04/20 11:53:42;;;;;;;6.80;6.50;;;20.30;63.50;;;;;;5072407;28;20440;-63
2021/04/20 11:56:10;;;;;;;6.80;6.40;;;20.30;66.80;;;;;;5068369;28;20439;-63
2021/04/20 11:58:41;;;;;;;7.80;7.10;;;20.30;65.40;;;;;;5072982;28;20428;-63
2021/04/20 12:01:17;;;;;;;6.30;5.90;;;20.20;71.90;;;;;;5079396;28;20467;-63
2021/04/20 12:04:06;;;;;;;7.20;6.70;;;20.00;71.90;;;;;;5079838;28;20574;-64
2021/04/20 12:06:44;;;;;;;7.57;7.07;;;19.80;73.30;;;;;;5079134;28;20406;-63
2021/04/20 12:09:17;;;;;;;5.90;5.60;;;19.50;73.00;;;;;;5080688;28;20469;-64
2021/04/20 12:11:46;;;;;;;6.87;6.37;;;19.30;75.20;;;;;;5080712;28;20432;-63
2021/04/20 12:14:17;;;;;;;7.50;7.00;;;19.20;76.80;;;;;;5079363;28;20435;-64
2021/04/20 12:16:45;;;;;;;6.47;6.13;;;18.90;76.60;;;;;;5079083;28;20462;-65
2021/04/20 12:19:14;;;;;;;7.33;6.70;;;18.70;77.20;;;;;;5078422;28;20425;-63
2021/04/20 12:21:45;;;;;;;6.47;5.90;;;18.70;76.70;;;;;;5072956;28;20410;-63
2021/04/20 12:24:21;;;;;;;6.93;6.40;;;18.60;76.00;;;;;;5081013;28;20460;-62
2021/04/20 12:26:50;;;;;;;7.63;7.03;;;18.60;76.30;;;;;;5074374;28;20434;-63
2021/04/20 12:29:19;;;;;;;6.30;5.90;;;18.60;76.40;;;;;;5078165;28;20454;-65
2021/04/20 12:31:47;;;;;;;5.37;5.17;;;18.20;63.30;;;;;;5083870;28;20739;-64
2021/04/20 12:34:15;;;;;;;6.27;5.87;;;18.00;59.90;;;;;;5076520;28;20438;-64
2021/04/20 12:36:49;;;;;;;6.17;5.77;;;18.00;58.40;;;;;;5079816;28;20879;-63
2021/04/20 12:39:36;;;;;;;5.70;5.50;;;18.20;57.70;;;;;;5081241;28;20421;-65
2021/04/20 12:42:08;;;;;;;5.57;5.37;;;18.40;59.80;;;;;;5087458;28;20433;-64
2021/04/20 12:44:45;;;;;;;5.90;5.60;;;18.30;58.90;;;;;;5084611;28;20438;-64
2021/04/20 12:47:12;;;;;;;5.03;4.83;;;18.00;58.60;;;;;;5082511;28;20445;-64
2021/04/20 12:49:48;;;;;;;6.57;6.00;;;18.00;59.40;;;;;;5080063;28;20582;-64
2021/04/20 12:52:18;;;;;;;5.60;5.40;;;18.20;59.40;;;;;;5073656;28;20417;-64
2021/04/20 12:54:50;;;;;;;6.43;6.13;;;18.20;56.70;;;;;;5073631;28;20536;-63
2021/04/20 12:57:36;;;;;;;6.03;5.77;;;18.50;57.40;;;;;;5077737;28;20446;-65
2021/04/20 13:00:25;;;;;;;5.87;5.67;;;18.90;54.60;;;;;;5076828;28;20413;-64
2021/04/20 13:02:53;;;;;;;5.80;5.40;;;18.90;53.60;;;;;;5076282;28;20450;-63
2021/04/20 13:05:27;;;;;;;6.30;6.00;;;17.70;58.70;;;;;;5085704;28;20747;-63
2021/04/20 13:07:54;;;;;;;5.80;5.50;;;17.00;66.40;;;;;;5080858;28;20483;-62
2021/04/20 13:10:23;;;;;;;6.77;6.30;;;16.50;68.00;;;;;;5078980;28;20421;-64
2021/04/20 13:12:55;;;;;;;6.10;5.80;;;16.50;68.30;;;;;;5079643;28;20443;-63
2021/04/20 13:15:23;;;;;;;6.07;5.77;;;17.10;68.80;;;;;;5084578;28;20450;-65
2021/04/20 13:17:52;;;;;;;6.20;5.90;;;17.40;66.50;;;;;;5063119;28;20455;-64
2021/04/20 13:20:40;;;;;;;6.27;6.07;;;17.40;65.70;;;;;;5064991;28;20420;-63
2021/04/20 13:23:36;;;;;;;7.37;6.97;;;17.40;63.90;;;;;;5079196;28;20636;-64
2021/04/20 13:26:08;;;;;;;5.50;5.30;;;17.10;65.00;;;;;;5062570;28;20423;-63